createdAt,value
2022-10-06T00:00:54.653Z,71.80
2022-10-06T00:03:24.962Z,71.91
2022-10-06T00:05:51.927Z,72.01
2022-10-06T00:08:19.398Z,72.33
2022-10-06T00:10:46.077Z,72.57
2022-10-06T00:13:13.258Z,72.64
2022-10-06T00:15:39.951Z,72.70
2022-10-06T00:18:06.486Z,72.76
2022-10-06T00:20:33.280Z,72.77
2022-10-06T00:22:59.743Z,72.81
2022-10-06T00:25:28.167Z,72.60
2022-10-06T00:27:55.147Z,72.43
2022-10-06T00:30:24.712Z,73.77
2022-10-06T00:33:02.931Z,77.64
2022-10-06T00:35:33.550Z,78.10
2022-10-06T00:38:04.217Z,79.03
2022-10-06T00:40:32.061Z,81.52
2022-10-06T00:43:03.519Z,83.26
2022-10-06T00:45:39.952Z,84.61
2022-10-06T00:48:15.885Z,87.62
2022-10-06T00:50:42.897Z,88.74
2022-10-06T00:53:10.346Z,90.09
2022-10-06T00:55:53.922Z,91.31
2022-10-06T00:58:21.302Z,92.92
2022-10-06T01:00:50.604Z,94.56
2022-10-06T01:03:37.299Z,96.10
2022-10-06T01:06:05.053Z,97.37
2022-10-06T01:08:33.012Z,97.93
2022-10-06T01:10:59.907Z,98.13
2022-10-06T01:13:27.699Z,98.48
2022-10-06T01:16:01.372Z,98.91
2022-10-06T01:18:29.875Z,99.22
2022-10-06T01:21:09.305Z,98.89
2022-10-06T01:23:36.643Z,98.61
2022-10-06T01:26:07.502Z,98.49
2022-10-06T01:28:34.415Z,98.69
2022-10-06T01:31:02.087Z,98.64
2022-10-06T01:33:29.844Z,98.93
2022-10-06T01:35:56.751Z,98.73
2022-10-06T01:38:23.621Z,98.42
2022-10-06T01:40:52.384Z,97.31
2022-10-06T01:43:19.318Z,96.43
2022-10-06T01:45:45.906Z,95.53
2022-10-06T01:48:12.585Z,95.21
2022-10-06T01:50:40.919Z,94.71
2022-10-06T01:53:07.667Z,94.41
2022-10-06T01:55:35.298Z,94.21
2022-10-06T01:58:02.074Z,93.86
2022-10-06T02:00:29.075Z,93.54
2022-10-06T02:02:55.984Z,93.26
2022-10-06T02:05:22.635Z,93.08
2022-10-06T02:07:49.461Z,92.74
2022-10-06T02:10:16.413Z,92.62
2022-10-06T02:12:43.401Z,92.48
2022-10-06T02:15:11.092Z,92.11
2022-10-06T02:17:38.754Z,91.87
2022-10-06T02:20:06.786Z,91.59
2022-10-06T02:22:38.021Z,91.32
2022-10-06T02:25:05.533Z,91.00
2022-10-06T02:27:31.936Z,90.46
2022-10-06T02:29:58.969Z,90.39
2022-10-06T02:32:32.820Z,90.20
2022-10-06T02:35:00.172Z,89.89
2022-10-06T02:37:26.825Z,89.88
2022-10-06T02:39:53.349Z,89.72
2022-10-06T02:42:20.107Z,89.74
2022-10-06T02:44:47.007Z,89.70
2022-10-06T02:47:14.468Z,89.91
2022-10-06T02:49:41.567Z,89.85
2022-10-06T02:52:08.747Z,89.89
2022-10-06T02:54:36.707Z,89.89
2022-10-06T02:57:03.472Z,90.20
2022-10-06T02:59:30.341Z,90.20
2022-10-06T03:01:57.346Z,90.32
2022-10-06T03:04:24.505Z,90.48
2022-10-06T03:06:51.327Z,90.50
2022-10-06T03:09:18.895Z,90.54
2022-10-06T03:11:45.762Z,90.63
2022-10-06T03:14:12.533Z,90.72
2022-10-06T03:16:43.624Z,90.76
2022-10-06T03:19:10.942Z,90.53
2022-10-06T03:21:40.080Z,90.22
2022-10-06T03:24:06.876Z,89.76
2022-10-06T03:26:41.568Z,89.45
2022-10-06T03:29:11.813Z,89.31
2022-10-06T03:31:39.872Z,89.11
2022-10-06T03:34:07.210Z,88.86
2022-10-06T03:36:34.653Z,88.73
2022-10-06T03:39:02.733Z,88.83
2022-10-06T03:41:31.945Z,88.69
2022-10-06T03:43:59.672Z,88.42
2022-10-06T03:46:32.409Z,88.50
2022-10-06T03:49:00.543Z,88.22
2022-10-06T03:51:29.949Z,88.09
2022-10-06T03:53:57.356Z,88.09
2022-10-06T03:56:29.513Z,88.21
2022-10-06T03:58:59.708Z,88.08
2022-10-06T04:01:29.686Z,88.05
2022-10-06T04:03:57.927Z,87.98
2022-10-06T04:06:26.175Z,87.87
2022-10-06T04:08:54.210Z,87.83
2022-10-06T04:11:30.587Z,87.90
2022-10-06T04:14:06.153Z,87.82
2022-10-06T04:16:41.381Z,87.85
2022-10-06T04:19:10.117Z,87.95
2022-10-06T04:21:38.192Z,87.69
2022-10-06T04:24:06.919Z,87.77
2022-10-06T04:26:36.760Z,87.65
2022-10-06T04:29:03.832Z,87.46
2022-10-06T04:31:33.408Z,87.46
2022-10-06T04:34:01.797Z,87.64
2022-10-06T04:36:34.620Z,87.46
2022-10-06T04:41:32.275Z,87.26
2022-10-06T04:43:59.998Z,87.61
2022-10-06T04:46:42.578Z,87.16
2022-10-06T04:49:17.578Z,86.89
2022-10-06T04:51:45.478Z,86.43
2022-10-06T04:54:12.426Z,85.85
2022-10-06T04:56:39.494Z,85.63
2022-10-06T04:59:06.870Z,84.97
2022-10-06T05:01:36.409Z,84.22
2022-10-06T05:04:05.914Z,83.70
2022-10-06T05:06:35.161Z,83.60
2022-10-06T05:09:05.439Z,83.27
2022-10-06T05:11:32.129Z,82.44
2022-10-06T05:13:59.344Z,81.89
2022-10-06T05:16:27.759Z,81.74
2022-10-06T05:18:54.687Z,81.39
2022-10-06T05:21:23.788Z,80.98
2022-10-06T05:23:50.913Z,80.64
2022-10-06T05:26:20.018Z,80.25
2022-10-06T05:28:47.049Z,80.33
2022-10-06T05:31:17.998Z,80.50
2022-10-06T05:33:44.886Z,80.75
2022-10-06T05:36:23.100Z,81.00
2022-10-06T05:38:50.181Z,80.57
2022-10-06T05:41:20.314Z,80.74
2022-10-06T05:43:48.278Z,80.82
2022-10-06T05:46:20.835Z,80.69
2022-10-06T05:48:48.835Z,80.92
2022-10-06T05:51:16.580Z,81.13
2022-10-06T05:53:43.798Z,81.12
2022-10-06T05:56:15.041Z,81.07
2022-10-06T05:58:43.663Z,81.34
2022-10-06T06:01:13.376Z,81.44
2022-10-06T06:03:41.654Z,81.60
2022-10-06T06:06:33.521Z,81.38
2022-10-06T06:09:10.522Z,80.81
2022-10-06T06:11:40.071Z,81.03
2022-10-06T06:14:10.484Z,81.11
2022-10-06T06:16:47.597Z,81.07
2022-10-06T06:19:23.975Z,80.88
2022-10-06T06:21:53.846Z,80.21
2022-10-06T06:24:20.516Z,80.15
2022-10-06T06:26:47.284Z,80.04
2022-10-06T06:29:14.220Z,79.63
2022-10-06T06:31:43.878Z,79.37
2022-10-06T06:34:12.022Z,78.81
2022-10-06T06:36:41.267Z,78.70
2022-10-06T06:39:10.870Z,78.44
2022-10-06T06:41:40.655Z,78.23
2022-10-06T06:44:11.029Z,78.05
2022-10-06T06:46:38.859Z,77.10
2022-10-06T06:49:06.754Z,77.31
2022-10-06T06:51:35.251Z,77.43
2022-10-06T06:54:02.595Z,77.04
2022-10-06T06:56:35.102Z,76.64
2022-10-06T06:59:08.797Z,76.56
2022-10-06T07:01:35.488Z,75.80
2022-10-06T07:04:02.776Z,76.40
2022-10-06T07:06:30.769Z,76.26
2022-10-06T07:08:59.160Z,75.77
2022-10-06T07:11:29.207Z,75.01
2022-10-06T07:13:58.467Z,74.80
2022-10-06T07:17:00.733Z,75.24
2022-10-06T07:19:46.072Z,74.83
2022-10-06T07:22:35.659Z,74.60
2022-10-06T07:25:08.249Z,74.48
2022-10-06T07:27:36.075Z,74.33
2022-10-06T07:30:04.504Z,74.04
2022-10-06T07:32:31.520Z,73.74
2022-10-06T07:34:58.765Z,73.89
2022-10-06T07:37:25.697Z,73.86
2022-10-06T07:39:52.812Z,73.01
2022-10-06T07:42:20.323Z,73.10
2022-10-06T07:45:07.781Z,72.76
2022-10-06T07:47:38.058Z,71.64
2022-10-06T07:50:09.055Z,71.25
2022-10-06T07:52:39.295Z,70.91
2022-10-06T07:55:06.981Z,70.57
2022-10-06T07:57:35.208Z,71.34
2022-10-06T08:00:05.382Z,72.02
2022-10-06T08:02:35.537Z,70.97
2022-10-06T08:05:03.888Z,70.49
2022-10-06T08:07:30.613Z,70.23
2022-10-06T08:09:57.334Z,69.95
2022-10-06T08:12:33.197Z,69.17
2022-10-06T08:15:06.860Z,69.72
2022-10-06T08:17:36.496Z,69.94
2022-10-06T08:20:06.827Z,69.32
2022-10-06T08:22:33.692Z,69.97
2022-10-06T08:25:06.256Z,69.60
2022-10-06T08:27:37.405Z,68.33
2022-10-06T08:30:08.151Z,67.88
2022-10-06T08:32:35.071Z,67.83
2022-10-06T08:35:02.303Z,67.35
2022-10-06T08:37:29.324Z,66.91
2022-10-06T08:39:57.158Z,66.37
2022-10-06T08:42:43.317Z,66.33
2022-10-06T08:45:24.009Z,65.92
2022-10-06T08:47:56.526Z,65.15
2022-10-06T08:50:27.416Z,65.10
2022-10-06T08:53:21.653Z,65.27
2022-10-06T08:55:53.434Z,63.56
2022-10-06T08:58:30.752Z,63.06
2022-10-06T09:01:41.570Z,63.28
2022-10-06T09:04:14.473Z,61.85
2022-10-06T09:07:10.663Z,60.84
2022-10-06T09:09:54.489Z,59.96
2022-10-06T09:12:30.940Z,58.74
2022-10-06T09:15:23.562Z,59.12
2022-10-06T09:18:00.277Z,59.54
2022-10-06T09:20:47.332Z,59.45
2022-10-06T09:23:17.766Z,60.08
2022-10-06T09:25:44.903Z,60.50
2022-10-06T09:28:15.853Z,60.55
2022-10-06T09:30:43.286Z,59.11
2022-10-06T09:33:21.238Z,58.87
2022-10-06T09:36:10.953Z,59.61
2022-10-06T09:38:48.364Z,59.43
2022-10-06T09:41:17.473Z,58.40
2022-10-06T09:43:53.653Z,58.50
2022-10-06T09:46:28.261Z,58.34
2022-10-06T09:49:07.949Z,59.20
2022-10-06T09:51:36.366Z,58.89
2022-10-06T09:54:15.752Z,57.27
2022-10-06T09:56:45.374Z,56.11
2022-10-06T09:59:34.142Z,54.90
2022-10-06T10:02:04.949Z,54.75
2022-10-06T10:04:37.576Z,56.09
2022-10-06T10:07:34.776Z,56.46
2022-10-06T10:10:23.007Z,55.18
2022-10-06T10:12:54.925Z,55.18
2022-10-06T10:15:21.613Z,55.18
2022-10-06T10:17:49.614Z,55.30
2022-10-06T10:20:24.921Z,55.11
2022-10-06T10:22:53.380Z,55.05
2022-10-06T10:25:45.458Z,54.02
2022-10-06T10:28:15.763Z,52.77
2022-10-06T10:31:02.272Z,52.67
2022-10-06T10:34:12.739Z,51.90
2022-10-06T10:36:59.205Z,51.68
2022-10-06T10:39:43.598Z,52.94
2022-10-06T10:42:28.267Z,53.08
2022-10-06T10:45:00.516Z,54.00
2022-10-06T10:47:36.619Z,53.45
2022-10-06T10:50:09.009Z,53.74
2022-10-06T10:52:41.565Z,53.38
2022-10-06T10:55:30.917Z,54.32
2022-10-06T10:58:04.314Z,53.50
2022-10-06T11:00:37.637Z,52.98
2022-10-06T11:03:04.990Z,52.41
2022-10-06T11:06:06.001Z,52.92
2022-10-06T11:09:10.149Z,52.89
2022-10-06T11:11:46.454Z,51.49
2022-10-06T11:14:36.471Z,51.88
2022-10-06T11:17:44.146Z,51.45
2022-10-06T11:20:36.688Z,51.69
2022-10-06T11:23:24.423Z,51.58
2022-10-06T11:26:07.410Z,51.40
2022-10-06T11:28:43.634Z,50.55
2022-10-06T11:31:33.227Z,50.46
2022-10-06T11:34:02.334Z,50.28
2022-10-06T11:36:37.553Z,49.25
2022-10-06T11:39:30.769Z,48.29
2022-10-06T11:45:30.486Z,46.24
2022-10-06T11:48:21.315Z,45.00
2022-10-06T11:50:52.020Z,43.45
2022-10-06T11:53:39.931Z,42.89
2022-10-06T11:56:18.377Z,40.46
2022-10-06T11:58:50.965Z,40.66
2022-10-06T12:01:40.174Z,40.13
2022-10-06T12:04:09.686Z,38.69
2022-10-06T12:06:45.691Z,37.02
2022-10-06T12:09:24.634Z,36.89
2022-10-06T12:11:54.652Z,35.82
2022-10-06T12:16:55.326Z,35.30
2022-10-06T12:17:47.099Z,35.16
2022-10-06T12:20:52.784Z,34.55
2022-10-06T12:23:53.572Z,33.43
2022-10-06T12:26:30.638Z,31.90
2022-10-06T12:29:31.840Z,30.93
2022-10-06T12:32:21.460Z,30.90
2022-10-06T12:34:57.375Z,30.46
2022-10-06T12:37:54.437Z,30.21
2022-10-06T12:40:46.953Z,28.65
2022-10-06T12:43:19.076Z,28.27
2022-10-06T12:46:08.158Z,27.95
2022-10-06T12:48:40.633Z,28.07
2022-10-06T12:51:13.596Z,28.13
2022-10-06T12:53:50.524Z,27.71
2022-10-06T12:56:31.812Z,26.98
2022-10-06T12:58:58.698Z,26.42
2022-10-06T13:01:28.413Z,25.76
2022-10-06T13:03:55.540Z,25.59
2022-10-06T13:06:24.197Z,25.58
2022-10-06T13:09:14.061Z,25.45
2022-10-06T13:11:40.622Z,24.30
2022-10-06T13:14:12.333Z,24.62
2022-10-06T13:16:48.125Z,24.41
2022-10-06T13:19:28.977Z,24.31
2022-10-06T13:21:55.578Z,23.97
2022-10-06T13:24:26.709Z,23.87
2022-10-06T13:26:54.113Z,24.21
2022-10-06T13:29:25.617Z,24.17
2022-10-06T13:31:54.698Z,23.88
2022-10-06T13:34:30.066Z,23.64
2022-10-06T13:36:59.043Z,23.87
2022-10-06T13:39:27.591Z,24.41
2022-10-06T13:42:02.364Z,25.24
2022-10-06T13:44:39.202Z,25.44
2022-10-06T13:47:14.422Z,25.42
2022-10-06T13:49:52.832Z,24.73
2022-10-06T13:52:21.892Z,25.03
2022-10-06T13:54:57.229Z,24.86
2022-10-06T13:57:35.759Z,24.28
2022-10-06T14:00:05.849Z,23.83
2022-10-06T14:02:32.700Z,23.48
2022-10-06T14:05:37.694Z,23.40
2022-10-06T14:08:21.908Z,22.55
2022-10-06T14:10:54.299Z,23.12
2022-10-06T14:13:28.231Z,22.60
2022-10-06T14:15:58.607Z,22.48
2022-10-06T14:18:29.494Z,23.17
2022-10-06T14:20:57.456Z,23.76
2022-10-06T14:23:39.138Z,24.21
2022-10-06T14:26:05.938Z,24.65
2022-10-06T14:28:32.396Z,24.66
2022-10-06T14:30:59.100Z,25.33
2022-10-06T14:33:25.939Z,25.95
2022-10-06T14:35:53.142Z,26.21
2022-10-06T14:38:19.987Z,26.63
2022-10-06T14:40:46.373Z,26.45
2022-10-06T14:43:12.945Z,26.42
2022-10-06T14:45:43.674Z,26.24
2022-10-06T14:48:11.525Z,25.73
2022-10-06T14:50:38.415Z,25.36
2022-10-06T14:53:05.040Z,25.20
2022-10-06T14:55:31.581Z,25.21
2022-10-06T14:57:58.330Z,25.19
2022-10-06T15:00:28.204Z,25.36
2022-10-06T15:02:56.228Z,25.01
2022-10-06T15:05:26.071Z,25.54
2022-10-06T15:08:10.954Z,25.69
2022-10-06T15:10:39.041Z,26.40
2022-10-06T15:13:08.499Z,26.57
2022-10-06T15:15:35.963Z,26.84
2022-10-06T15:18:03.665Z,26.68
2022-10-06T15:20:30.551Z,27.09
2022-10-06T15:22:57.268Z,27.41
2022-10-06T15:25:42.193Z,27.84
2022-10-06T15:28:31.373Z,27.96
2022-10-06T15:31:55.636Z,28.22
2022-10-06T15:34:27.822Z,28.24
2022-10-06T15:36:56.424Z,28.03
2022-10-06T15:39:25.599Z,28.08
2022-10-06T15:41:53.053Z,28.29
2022-10-06T15:44:20.432Z,28.30
2022-10-06T15:46:53.021Z,28.35
2022-10-06T15:49:26.854Z,28.48
2022-10-06T15:52:14.017Z,28.80
2022-10-06T15:54:41.313Z,28.85
2022-10-06T15:57:16.332Z,29.13
2022-10-06T15:59:44.499Z,29.16
2022-10-06T16:02:16.753Z,29.44
2022-10-06T16:04:44.668Z,29.86
2022-10-06T16:07:19.093Z,30.01
2022-10-06T16:09:49.945Z,30.55
2022-10-06T16:12:19.403Z,31.27
2022-10-06T16:14:46.140Z,31.79
2022-10-06T16:17:15.815Z,32.37
2022-10-06T16:19:42.633Z,33.25
2022-10-06T16:22:14.745Z,33.77
2022-10-06T16:24:44.455Z,34.56
2022-10-06T16:27:12.814Z,35.31
2022-10-06T16:29:39.217Z,36.45
2022-10-06T16:32:05.644Z,37.59
2022-10-06T16:34:32.890Z,38.83
2022-10-06T16:36:59.330Z,40.03
2022-10-06T16:39:25.734Z,41.25
2022-10-06T16:41:52.197Z,42.36
2022-10-06T16:44:18.613Z,43.74
2022-10-06T16:46:45.368Z,44.83
2022-10-06T16:49:11.942Z,46.16
2022-10-06T16:51:41.670Z,47.02
2022-10-06T16:54:10.645Z,48.43
2022-10-06T16:56:46.432Z,49.31
2022-10-06T16:59:15.328Z,50.25
2022-10-06T17:01:42.086Z,50.79
2022-10-06T17:04:17.113Z,51.61
2022-10-06T17:06:48.591Z,52.02
2022-10-06T17:09:17.120Z,52.76
2022-10-06T17:11:49.579Z,53.45
2022-10-06T17:14:17.202Z,54.11
2022-10-06T17:16:45.722Z,54.62
2022-10-06T17:19:14.396Z,55.21
2022-10-06T17:21:46.029Z,55.80
2022-10-06T17:24:17.285Z,55.70
2022-10-06T17:26:46.633Z,56.20
2022-10-06T17:29:19.175Z,56.80
2022-10-06T17:31:47.180Z,56.84
2022-10-06T17:34:20.306Z,57.46
2022-10-06T17:36:50.633Z,57.77
2022-10-06T17:39:20.178Z,58.43
2022-10-06T17:41:47.772Z,58.51
2022-10-06T17:44:21.482Z,59.29
2022-10-06T17:46:50.564Z,59.81
2022-10-06T17:49:20.707Z,60.20
2022-10-06T17:51:48.004Z,60.94
2022-10-06T17:54:19.108Z,61.04
2022-10-06T17:56:50.992Z,61.44
2022-10-06T17:59:23.520Z,62.04
2022-10-06T18:01:51.794Z,62.33
2022-10-06T18:04:19.536Z,62.33
2022-10-06T18:06:47.642Z,62.90
2022-10-06T18:09:15.567Z,63.65
2022-10-06T18:11:44.233Z,63.91
2022-10-06T18:14:16.459Z,64.04
2022-10-06T18:16:42.933Z,64.41
2022-10-06T18:19:17.979Z,64.24
2022-10-06T18:21:46.755Z,64.64
2022-10-06T18:24:16.585Z,64.83
2022-10-06T18:26:44.643Z,65.12
2022-10-06T18:29:11.544Z,65.33
2022-10-06T18:31:39.141Z,65.06
2022-10-06T18:36:53.026Z,65.22
2022-10-06T18:39:19.641Z,65.52
2022-10-06T18:41:47.519Z,65.45
2022-10-06T18:44:14.003Z,65.94
2022-10-06T18:46:59.172Z,66.06
2022-10-06T18:49:25.789Z,66.26
2022-10-06T18:51:58.247Z,66.56
2022-10-06T18:54:27.500Z,66.71
2022-10-06T18:56:54.992Z,66.79
2022-10-06T18:59:26.649Z,66.70
2022-10-06T19:01:55.089Z,66.70
2022-10-06T19:04:23.266Z,66.56
2022-10-06T19:06:55.124Z,66.48
2022-10-06T19:09:23.768Z,66.58
2022-10-06T19:11:56.498Z,66.83
2022-10-06T19:14:36.476Z,67.22
2022-10-06T19:17:14.130Z,67.32
2022-10-06T19:19:43.275Z,67.23
2022-10-06T19:22:12.003Z,67.42
2022-10-06T19:24:40.761Z,67.26
2022-10-06T19:27:13.776Z,67.60
2022-10-06T19:29:46.036Z,67.87
2022-10-06T19:32:18.980Z,67.96
2022-10-06T19:34:46.980Z,68.05
2022-10-06T19:37:14.126Z,67.98
2022-10-06T19:39:44.020Z,68.41
2022-10-06T19:42:34.707Z,68.25
2022-10-06T19:45:01.857Z,68.23
2022-10-06T19:47:28.802Z,68.30
2022-10-06T19:49:58.883Z,68.56
2022-10-06T19:52:27.322Z,68.54
2022-10-06T19:54:53.816Z,68.63
2022-10-06T19:57:20.242Z,68.75
2022-10-06T19:59:46.724Z,68.92
2022-10-06T20:02:13.156Z,69.02
2022-10-06T20:04:39.967Z,68.93
2022-10-06T20:07:06.753Z,69.08
2022-10-06T20:09:33.625Z,69.38
2022-10-06T20:12:01.505Z,69.63
2022-10-06T20:14:28.012Z,69.84
2022-10-06T20:16:56.131Z,69.99
2022-10-06T20:19:25.177Z,70.22
2022-10-06T20:21:52.403Z,70.34
2022-10-06T20:24:22.726Z,70.42
2022-10-06T20:26:50.724Z,71.08
2022-10-06T20:29:23.213Z,71.77
2022-10-06T20:31:51.781Z,71.86
2022-10-06T20:34:25.033Z,71.96
2022-10-06T20:36:56.027Z,72.09
2022-10-06T20:39:42.548Z,72.22
2022-10-06T20:42:14.869Z,72.89
2022-10-06T20:44:42.802Z,73.28
2022-10-06T20:47:10.522Z,73.28
2022-10-06T20:49:37.720Z,73.66
2022-10-06T20:52:05.349Z,73.68
2022-10-06T20:54:34.873Z,73.91
2022-10-06T20:57:04.500Z,73.84
2022-10-06T20:59:32.358Z,74.04
2022-10-06T21:02:02.435Z,74.00
2022-10-06T21:04:29.250Z,73.96
2022-10-06T21:06:56.261Z,74.13
2022-10-06T21:09:24.804Z,74.25
2022-10-06T21:11:51.538Z,74.43
2022-10-06T21:14:18.601Z,74.63
2022-10-06T21:16:46.803Z,74.71
2022-10-06T21:19:16.233Z,74.99
2022-10-06T21:21:45.803Z,75.28
2022-10-06T21:24:12.995Z,75.51
2022-10-06T21:26:42.298Z,75.67
2022-10-06T21:29:12.819Z,75.55
2022-10-06T21:31:39.502Z,75.74
2022-10-06T21:34:06.176Z,75.65
2022-10-06T21:36:32.777Z,75.98
2022-10-06T21:39:07.058Z,75.99
2022-10-06T21:41:39.011Z,76.31
2022-10-06T21:44:11.561Z,76.22
2022-10-06T21:46:41.156Z,76.52
2022-10-06T21:49:12.063Z,76.55
2022-10-06T21:51:40.188Z,76.72
2022-10-06T21:54:07.467Z,76.90
2022-10-06T21:56:34.061Z,77.23
2022-10-06T21:59:00.977Z,77.41
2022-10-06T22:01:33.379Z,77.59
2022-10-06T22:04:00.725Z,77.70
2022-10-06T22:06:31.579Z,77.69
2022-10-06T22:08:59.501Z,77.51
2022-10-06T22:11:34.595Z,77.93
2022-10-06T22:14:03.168Z,78.11
2022-10-06T22:16:33.086Z,78.21
2022-10-06T22:19:02.013Z,78.42
2022-10-06T22:21:35.714Z,78.80
2022-10-06T22:24:05.607Z,78.70
2022-10-06T22:26:34.033Z,78.64
2022-10-06T22:29:00.845Z,78.57
2022-10-06T22:31:31.066Z,78.68
2022-10-06T22:34:00.224Z,78.77
2022-10-06T22:36:28.512Z,78.92
2022-10-06T22:38:56.065Z,78.58
2022-10-06T22:41:23.681Z,78.70
2022-10-06T22:43:57.352Z,79.01
2022-10-06T22:46:29.355Z,79.10
2022-10-06T22:48:56.088Z,79.07
2022-10-06T22:51:23.012Z,79.21
2022-10-06T22:53:57.909Z,79.19
2022-10-06T22:56:29.303Z,79.30
2022-10-06T22:58:59.728Z,79.45
2022-10-06T23:01:27.178Z,79.83
2022-10-06T23:03:55.447Z,79.77
2022-10-06T23:06:22.025Z,80.10
2022-10-06T23:08:48.735Z,80.06
2022-10-06T23:11:18.439Z,80.10
2022-10-06T23:13:45.222Z,79.91
2022-10-06T23:16:14.616Z,80.04
2022-10-06T23:18:42.937Z,80.16
2022-10-06T23:21:29.804Z,80.02
2022-10-06T23:23:59.856Z,79.97
2022-10-06T23:26:27.703Z,79.85
2022-10-06T23:29:01.491Z,80.14
2022-10-06T23:31:29.574Z,80.29
2022-10-06T23:33:56.490Z,80.49
2022-10-06T23:36:22.989Z,80.20
2022-10-06T23:38:49.520Z,80.29
2022-10-06T23:41:16.244Z,80.63
2022-10-06T23:43:43.446Z,80.84
2022-10-06T23:46:10.143Z,80.89
2022-10-06T23:48:37.461Z,80.93
2022-10-06T23:51:12.375Z,81.05
2022-10-06T23:53:39.609Z,80.94
2022-10-06T23:56:07.040Z,81.09
2022-10-06T23:58:33.668Z,81.57
